sensor_id;sensor_type;location;lat;lon;timestamp;pressure;altitude;pressure_sealevel;temperature;humidity
57048;BME280;42934;54.294;18.598;2022-09-16T00:02:12;99039.09;;;12.37;72.01
57048;BME280;42934;54.294;18.598;2022-09-16T00:04:41;99042.34;;;12.27;72.92
57048;BME280;42934;54.294;18.598;2022-09-16T00:07:10;99039.78;;;12.26;72.56
57048;BME280;42934;54.294;18.598;2022-09-16T00:09:40;99040.25;;;12.33;72.49
57048;BME280;42934;54.294;18.598;2022-09-16T00:12:10;99043.47;;;12.23;72.45
57048;BME280;42934;54.294;18.598;2022-09-16T00:14:40;99047.81;;;12.24;72.84
57048;BME280;42934;54.294;18.598;2022-09-16T00:17:09;99041.69;;;12.24;72.35
57048;BME280;42934;54.294;18.598;2022-09-16T00:19:38;99046.75;;;12.27;72.12
57048;BME280;42934;54.294;18.598;2022-09-16T00:22:07;99043.09;;;12.30;72.11
57048;BME280;42934;54.294;18.598;2022-09-16T00:24:37;99043.47;;;12.23;72.36
57048;BME280;42934;54.294;18.598;2022-09-16T00:27:06;99052.88;;;12.27;72.20
57048;BME280;42934;54.294;18.598;2022-09-16T00:29:36;99041.78;;;12.22;71.90
57048;BME280;42934;54.294;18.598;2022-09-16T00:32:06;99043.59;;;12.22;72.21
57048;BME280;42934;54.294;18.598;2022-09-16T00:34:35;99038.41;;;12.20;72.13
57048;BME280;42934;54.294;18.598;2022-09-16T00:37:04;99056.69;;;12.09;72.71
57048;BME280;42934;54.294;18.598;2022-09-16T00:39:35;99055.97;;;12.20;71.98
57048;BME280;42934;54.294;18.598;2022-09-16T00:42:05;99047.75;;;12.12;72.16
57048;BME280;42934;54.294;18.598;2022-09-16T00:44:56;99052.16;;;12.11;71.89
57048;BME280;42934;54.294;18.598;2022-09-16T00:47:30;99053.88;;;12.12;71.77
57048;BME280;42934;54.294;18.598;2022-09-16T00:50:04;99054.06;;;12.09;72.30
57048;BME280;42934;54.294;18.598;2022-09-16T00:52:36;99041.59;;;11.98;72.42
57048;BME280;42934;54.294;18.598;2022-09-16T00:55:09;99038.56;;;12.04;72.14
57048;BME280;42934;54.294;18.598;2022-09-16T00:57:40;99036.56;;;12.08;72.01
57048;BME280;42934;54.294;18.598;2022-09-16T01:00:12;99023.63;;;12.05;71.72
57048;BME280;42934;54.294;18.598;2022-09-16T01:02:43;99028.03;;;12.04;71.83
57048;BME280;42934;54.294;18.598;2022-09-16T01:05:17;99033.84;;;12.10;71.35
57048;BME280;42934;54.294;18.598;2022-09-16T01:07:49;99032.25;;;12.07;71.72
57048;BME280;42934;54.294;18.598;2022-09-16T01:10:21;99035.94;;;12.04;71.68
57048;BME280;42934;54.294;18.598;2022-09-16T01:12:53;99033.94;;;12.08;71.32
57048;BME280;42934;54.294;18.598;2022-09-16T01:15:29;99033.59;;;12.00;71.06
57048;BME280;42934;54.294;18.598;2022-09-16T01:18:10;99033.94;;;12.08;70.97
57048;BME280;42934;54.294;18.598;2022-09-16T01:33:00;99043.28;;;11.99;70.72
57048;BME280;42934;54.294;18.598;2022-09-16T01:35:56;99043.28;;;11.99;71.02
57048;BME280;42934;54.294;18.598;2022-09-16T01:38:41;99043.38;;;11.98;70.86
57048;BME280;42934;54.294;18.598;2022-09-16T01:41:17;99049.97;;;11.91;71.46
57048;BME280;42934;54.294;18.598;2022-09-16T01:43:52;99047.25;;;11.92;71.78
57048;BME280;42934;54.294;18.598;2022-09-16T01:46:33;99039.91;;;11.97;71.24
57048;BME280;42934;54.294;18.598;2022-09-16T01:49:15;99045.19;;;11.97;71.35
57048;BME280;42934;54.294;18.598;2022-09-16T01:51:52;99045.06;;;11.99;71.28
57048;BME280;42934;54.294;18.598;2022-09-16T01:54:30;99039.03;;;11.97;71.22
57048;BME280;42934;54.294;18.598;2022-09-16T01:57:04;99051.47;;;11.95;71.21
57048;BME280;42934;54.294;18.598;2022-09-16T01:59:40;99044.50;;;11.94;71.42
57048;BME280;42934;54.294;18.598;2022-09-16T02:02:14;99047.53;;;11.88;71.70
57048;BME280;42934;54.294;18.598;2022-09-16T02:04:50;99031.06;;;11.84;71.60
57048;BME280;42934;54.294;18.598;2022-09-16T02:07:26;99033.91;;;11.81;71.60
57048;BME280;42934;54.294;18.598;2022-09-16T02:09:59;99039.34;;;11.78;71.88
57048;BME280;42934;54.294;18.598;2022-09-16T02:12:36;99035.56;;;11.82;71.78
57048;BME280;42934;54.294;18.598;2022-09-16T02:15:11;99044.34;;;11.82;71.59
57048;BME280;42934;54.294;18.598;2022-09-16T02:17:48;99041.44;;;11.73;72.28
57048;BME280;42934;54.294;18.598;2022-09-16T02:20:24;99037.13;;;11.72;72.61
57048;BME280;42934;54.294;18.598;2022-09-16T02:22:58;99039.09;;;11.68;72.16
57048;BME280;42934;54.294;18.598;2022-09-16T02:25:33;99029.44;;;11.69;71.78
57048;BME280;42934;54.294;18.598;2022-09-16T02:28:06;99031.69;;;11.60;72.44
57048;BME280;42934;54.294;18.598;2022-09-16T02:30:40;99029.69;;;11.64;71.87
57048;BME280;42934;54.294;18.598;2022-09-16T02:33:12;99029.25;;;11.57;72.15
57048;BME280;42934;54.294;18.598;2022-09-16T02:35:46;99027.56;;;11.56;72.32
57048;BME280;42934;54.294;18.598;2022-09-16T02:38:21;99026.06;;;11.52;72.28
57048;BME280;42934;54.294;18.598;2022-09-16T02:40:55;99018.94;;;11.54;72.44
57048;BME280;42934;54.294;18.598;2022-09-16T02:43:26;99024.94;;;11.56;71.78
57048;BME280;42934;54.294;18.598;2022-09-16T02:46:02;99024.09;;;11.56;72.03
57048;BME280;42934;54.294;18.598;2022-09-16T02:48:41;99021.84;;;11.50;72.73
57048;BME280;42934;54.294;18.598;2022-09-16T02:51:20;99017.97;;;11.55;72.51
57048;BME280;42934;54.294;18.598;2022-09-16T02:53:57;99019.19;;;11.50;72.67
57048;BME280;42934;54.294;18.598;2022-09-16T02:56:31;99019.78;;;11.55;72.47
57048;BME280;42934;54.294;18.598;2022-09-16T02:59:04;99017.69;;;11.60;72.05
57048;BME280;42934;54.294;18.598;2022-09-16T03:01:43;99024.66;;;11.47;73.39
57048;BME280;42934;54.294;18.598;2022-09-16T03:04:14;99027.66;;;11.55;72.79
57048;BME280;42934;54.294;18.598;2022-09-16T03:06:46;99025.97;;;11.54;72.36
57048;BME280;42934;54.294;18.598;2022-09-16T03:09:17;99031.03;;;11.57;72.84
57048;BME280;42934;54.294;18.598;2022-09-16T03:12:16;99022.41;;;11.55;72.55
57048;BME280;42934;54.294;18.598;2022-09-16T03:18:02;99034.50;;;11.57;72.47
57048;BME280;42934;54.294;18.598;2022-09-16T03:20:42;99032.53;;;11.61;72.10
57048;BME280;42934;54.294;18.598;2022-09-16T03:23:24;99033.66;;;11.57;72.15
57048;BME280;42934;54.294;18.598;2022-09-16T03:25:59;99026.72;;;11.56;72.31
57048;BME280;42934;54.294;18.598;2022-09-16T03:28:40;99027.66;;;11.55;72.38
57048;BME280;42934;54.294;18.598;2022-09-16T03:31:17;99033.03;;;11.53;72.32
57048;BME280;42934;54.294;18.598;2022-09-16T03:33:52;99042.59;;;11.54;72.32
57048;BME280;42934;54.294;18.598;2022-09-16T03:36:30;99036.56;;;11.52;72.53
57048;BME280;42934;54.294;18.598;2022-09-16T03:39:03;99031.31;;;11.52;72.08
57048;BME280;42934;54.294;18.598;2022-09-16T03:41:33;99036.75;;;11.49;72.51
57048;BME280;42934;54.294;18.598;2022-09-16T03:44:03;99037.06;;;11.45;72.76
57048;BME280;42934;54.294;18.598;2022-09-16T03:46:32;99028.63;;;11.40;72.95
57048;BME280;42934;54.294;18.598;2022-09-16T03:49:02;99035.09;;;11.34;73.72
57048;BME280;42934;54.294;18.598;2022-09-16T03:51:31;99041.84;;;11.38;73.08
57048;BME280;42934;54.294;18.598;2022-09-16T03:54:02;99045.53;;;11.35;73.04
57048;BME280;42934;54.294;18.598;2022-09-16T03:56:31;99033.94;;;11.38;72.99
57048;BME280;42934;54.294;18.598;2022-09-16T03:59:00;99047.38;;;11.33;73.60
57048;BME280;42934;54.294;18.598;2022-09-16T04:01:30;99048.16;;;11.35;73.47
57048;BME280;42934;54.294;18.598;2022-09-16T04:03:59;99046.72;;;11.16;74.48
57048;BME280;42934;54.294;18.598;2022-09-16T04:06:28;99044.69;;;11.21;73.93
57048;BME280;42934;54.294;18.598;2022-09-16T04:08:57;99052.06;;;11.28;73.78
57048;BME280;42934;54.294;18.598;2022-09-16T04:11:29;99057.34;;;11.28;73.49
57048;BME280;42934;54.294;18.598;2022-09-16T04:13:59;99059.88;;;11.30;73.59
57048;BME280;42934;54.294;18.598;2022-09-16T04:16:28;99056.94;;;11.20;74.50
57048;BME280;42934;54.294;18.598;2022-09-16T04:18:58;99060.06;;;11.27;74.00
57048;BME280;42934;54.294;18.598;2022-09-16T04:21:27;99063.53;;;11.27;73.77
57048;BME280;42934;54.294;18.598;2022-09-16T04:23:56;99065.78;;;11.19;73.71
57048;BME280;42934;54.294;18.598;2022-09-16T04:26:27;99057.44;;;11.12;74.21
57048;BME280;42934;54.294;18.598;2022-09-16T04:28:56;99057.97;;;11.18;74.22
57048;BME280;42934;54.294;18.598;2022-09-16T04:31:26;99054.44;;;11.19;74.17
57048;BME280;42934;54.294;18.598;2022-09-16T04:33:55;99061.19;;;11.23;74.13
57048;BME280;42934;54.294;18.598;2022-09-16T04:36:25;99051.50;;;11.23;73.94
57048;BME280;42934;54.294;18.598;2022-09-16T04:38:54;99052.63;;;11.19;74.09
57048;BME280;42934;54.294;18.598;2022-09-16T04:41:25;99052.72;;;11.18;74.11
57048;BME280;42934;54.294;18.598;2022-09-16T04:43:57;99062.56;;;11.14;74.11
57048;BME280;42934;54.294;18.598;2022-09-16T04:46:29;99062.31;;;11.19;74.05
57048;BME280;42934;54.294;18.598;2022-09-16T04:49:00;99066.53;;;11.21;73.96
57048;BME280;42934;54.294;18.598;2022-09-16T04:51:29;99052.91;;;11.14;74.46
57048;BME280;42934;54.294;18.598;2022-09-16T04:53:59;99050.84;;;11.20;74.17
57048;BME280;42934;54.294;18.598;2022-09-16T04:56:30;99066.16;;;11.27;73.61
57048;BME280;42934;54.294;18.598;2022-09-16T04:59:04;99065.84;;;11.18;73.97
57048;BME280;42934;54.294;18.598;2022-09-16T05:01:35;99062.56;;;11.14;74.68
57048;BME280;42934;54.294;18.598;2022-09-16T05:04:06;99061.47;;;11.18;74.17
57048;BME280;42934;54.294;18.598;2022-09-16T05:06:37;99057.53;;;11.25;73.92
57048;BME280;42934;54.294;18.598;2022-09-16T05:09:08;99052.00;;;11.30;73.69
57048;BME280;42934;54.294;18.598;2022-09-16T05:11:39;99055.09;;;11.22;73.64
57048;BME280;42934;54.294;18.598;2022-09-16T05:14:13;99046.34;;;11.22;73.80
57048;BME280;42934;54.294;18.598;2022-09-16T05:16:44;99052.56;;;11.21;73.61
57048;BME280;42934;54.294;18.598;2022-09-16T05:19:14;99056.88;;;11.22;74.03
57048;BME280;42934;54.294;18.598;2022-09-16T05:21:43;99056.69;;;11.25;73.66
57048;BME280;42934;54.294;18.598;2022-09-16T05:24:13;99055.66;;;11.27;73.85
57048;BME280;42934;54.294;18.598;2022-09-16T05:26:43;99054.72;;;11.28;73.64
57048;BME280;42934;54.294;18.598;2022-09-16T05:29:15;99053.69;;;11.31;73.56
57048;BME280;42934;54.294;18.598;2022-09-16T05:31:45;99051.81;;;11.33;73.38
57048;BME280;42934;54.294;18.598;2022-09-16T05:34:15;99043.53;;;11.25;73.89
57048;BME280;42934;54.294;18.598;2022-09-16T05:36:45;99041.38;;;11.17;74.12
57048;BME280;42934;54.294;18.598;2022-09-16T05:39:17;99045.91;;;11.15;74.50
57048;BME280;42934;54.294;18.598;2022-09-16T05:41:53;99040.34;;;11.20;73.98
57048;BME280;42934;54.294;18.598;2022-09-16T05:44:25;99036.31;;;11.28;73.62
57048;BME280;42934;54.294;18.598;2022-09-16T05:46:55;99037.91;;;11.31;73.78
57048;BME280;42934;54.294;18.598;2022-09-16T05:49:24;99037.72;;;11.34;73.39
57048;BME280;42934;54.294;18.598;2022-09-16T05:51:54;99038.38;;;11.37;73.22
57048;BME280;42934;54.294;18.598;2022-09-16T05:54:24;99043.53;;;11.39;73.38
57048;BME280;42934;54.294;18.598;2022-09-16T05:56:54;99045.88;;;11.44;73.22
57048;BME280;42934;54.294;18.598;2022-09-16T05:59:26;99043.06;;;11.47;73.26
57048;BME280;42934;54.294;18.598;2022-09-16T06:01:57;99041.47;;;11.44;73.83
57048;BME280;42934;54.294;18.598;2022-09-16T06:04:26;99043.25;;;11.44;73.79
57048;BME280;42934;54.294;18.598;2022-09-16T06:06:55;99040.06;;;11.39;73.94
57048;BME280;42934;54.294;18.598;2022-09-16T06:09:25;99032.66;;;11.45;73.63
57048;BME280;42934;54.294;18.598;2022-09-16T06:11:54;99033.41;;;11.47;73.47
57048;BME280;42934;54.294;18.598;2022-09-16T06:14:30;99037.59;;;11.50;73.85
57048;BME280;42934;54.294;18.598;2022-09-16T06:16:59;99038.09;;;11.56;73.57
57048;BME280;42934;54.294;18.598;2022-09-16T06:19:28;99030.28;;;11.55;73.34
57048;BME280;42934;54.294;18.598;2022-09-16T06:21:58;99032.00;;;11.56;73.55
57048;BME280;42934;54.294;18.598;2022-09-16T06:24:27;99037.31;;;11.69;72.98
57048;BME280;42934;54.294;18.598;2022-09-16T06:26:56;99027.88;;;11.79;73.13
57048;BME280;42934;54.294;18.598;2022-09-16T06:29:26;99021.72;;;11.80;72.83
57048;BME280;42934;54.294;18.598;2022-09-16T06:31:56;99021.50;;;11.83;73.00
57048;BME280;42934;54.294;18.598;2022-09-16T06:34:30;99026.84;;;11.81;73.13
57048;BME280;42934;54.294;18.598;2022-09-16T06:37:00;99016.09;;;11.86;72.77
57048;BME280;42934;54.294;18.598;2022-09-16T06:39:29;99024.41;;;11.93;72.87
57048;BME280;42934;54.294;18.598;2022-09-16T06:42:00;99040.63;;;11.99;72.29
57048;BME280;42934;54.294;18.598;2022-09-16T06:44:40;99010.03;;;11.98;71.91
57048;BME280;42934;54.294;18.598;2022-09-16T06:47:11;99004.47;;;12.03;72.02
57048;BME280;42934;54.294;18.598;2022-09-16T06:49:40;99018.34;;;12.05;71.69
57048;BME280;42934;54.294;18.598;2022-09-16T06:52:10;99010.06;;;12.11;71.60
57048;BME280;42934;54.294;18.598;2022-09-16T06:54:39;99011.78;;;12.12;71.42
57048;BME280;42934;54.294;18.598;2022-09-16T06:57:08;99014.06;;;12.04;70.72
57048;BME280;42934;54.294;18.598;2022-09-16T06:59:39;99019.19;;;12.05;70.50
57048;BME280;42934;54.294;18.598;2022-09-16T07:02:10;99017.53;;;12.04;70.63
57048;BME280;42934;54.294;18.598;2022-09-16T07:04:40;99029.53;;;12.09;70.34
57048;BME280;42934;54.294;18.598;2022-09-16T07:07:09;99021.75;;;12.07;70.52
57048;BME280;42934;54.294;18.598;2022-09-16T07:09:39;99009.75;;;12.03;70.06
57048;BME280;42934;54.294;18.598;2022-09-16T07:12:09;99023.69;;;12.18;69.56
57048;BME280;42934;54.294;18.598;2022-09-16T07:14:42;99015.03;;;12.16;68.65
57048;BME280;42934;54.294;18.598;2022-09-16T07:17:13;99008.41;;;12.23;69.48
57048;BME280;42934;54.294;18.598;2022-09-16T07:19:42;99030.03;;;12.28;69.35
57048;BME280;42934;54.294;18.598;2022-09-16T07:22:12;99011.50;;;12.30;68.89
57048;BME280;42934;54.294;18.598;2022-09-16T07:24:41;99012.75;;;12.24;69.00
57048;BME280;42934;54.294;18.598;2022-09-16T07:27:10;99018.09;;;12.22;69.12
57048;BME280;42934;54.294;18.598;2022-09-16T07:29:40;99017.75;;;12.14;69.19
57048;BME280;42934;54.294;18.598;2022-09-16T07:32:09;99023.13;;;12.13;69.33
57048;BME280;42934;54.294;18.598;2022-09-16T07:34:40;99028.19;;;12.16;69.13
57048;BME280;42934;54.294;18.598;2022-09-16T07:37:09;99020.44;;;12.27;69.41
57048;BME280;42934;54.294;18.598;2022-09-16T07:39:40;99019.00;;;12.36;69.51
57048;BME280;42934;54.294;18.598;2022-09-16T07:42:17;99018.06;;;12.49;69.04
57048;BME280;42934;54.294;18.598;2022-09-16T07:44:47;99032.19;;;12.48;69.14
57048;BME280;42934;54.294;18.598;2022-09-16T07:47:16;99025.13;;;12.49;68.99
57048;BME280;42934;54.294;18.598;2022-09-16T07:49:50;99023.13;;;12.53;68.89
57048;BME280;42934;54.294;18.598;2022-09-16T07:52:22;99028.50;;;12.51;68.77
57048;BME280;42934;54.294;18.598;2022-09-16T07:54:56;99033.13;;;12.47;69.09
57048;BME280;42934;54.294;18.598;2022-09-16T07:57:25;99032.53;;;12.57;68.97
57048;BME280;42934;54.294;18.598;2022-09-16T07:59:54;99029.47;;;12.63;68.46
57048;BME280;42934;54.294;18.598;2022-09-16T08:02:24;99029.13;;;12.55;68.58
57048;BME280;42934;54.294;18.598;2022-09-16T08:04:55;99035.78;;;12.60;68.59
57048;BME280;42934;54.294;18.598;2022-09-16T08:07:25;99039.66;;;12.55;68.37
57048;BME280;42934;54.294;18.598;2022-09-16T08:09:55;99026.41;;;12.56;68.67
57048;BME280;42934;54.294;18.598;2022-09-16T08:12:24;99033.63;;;12.40;67.94
57048;BME280;42934;54.294;18.598;2022-09-16T08:14:53;99039.66;;;12.55;68.35
57048;BME280;42934;54.294;18.598;2022-09-16T08:17:22;99027.81;;;12.62;68.13
57048;BME280;42934;54.294;18.598;2022-09-16T08:19:51;99037.91;;;12.68;68.20
57048;BME280;42934;54.294;18.598;2022-09-16T08:22:23;99034.13;;;12.72;67.68
57048;BME280;42934;54.294;18.598;2022-09-16T08:24:53;99046.03;;;12.78;66.82
57048;BME280;42934;54.294;18.598;2022-09-16T08:27:23;99042.22;;;12.82;66.65
57048;BME280;42934;54.294;18.598;2022-09-16T08:29:54;99044.03;;;12.94;66.83
57048;BME280;42934;54.294;18.598;2022-09-16T08:32:27;99044.81;;;13.09;66.17
57048;BME280;42934;54.294;18.598;2022-09-16T08:34:58;99041.84;;;13.26;65.69
57048;BME280;42934;54.294;18.598;2022-09-16T08:37:30;99032.56;;;13.46;65.68
57048;BME280;42934;54.294;18.598;2022-09-16T08:40:00;99031.69;;;13.58;65.10
57048;BME280;42934;54.294;18.598;2022-09-16T08:42:39;99050.44;;;13.67;65.01
57048;BME280;42934;54.294;18.598;2022-09-16T08:45:19;99036.59;;;13.76;64.47
57048;BME280;42934;54.294;18.598;2022-09-16T08:48:00;99036.50;;;13.77;63.86
57048;BME280;42934;54.294;18.598;2022-09-16T08:50:38;99041.34;;;13.83;63.48
57048;BME280;42934;54.294;18.598;2022-09-16T08:53:14;99019.66;;;13.91;63.58
57048;BME280;42934;54.294;18.598;2022-09-16T08:55:48;99021.75;;;13.99;62.14
57048;BME280;42934;54.294;18.598;2022-09-16T08:58:20;99042.19;;;14.08;63.07
57048;BME280;42934;54.294;18.598;2022-09-16T09:00:55;99015.81;;;14.08;62.53
57048;BME280;42934;54.294;18.598;2022-09-16T09:03:35;99023.09;;;14.04;61.84
57048;BME280;42934;54.294;18.598;2022-09-16T09:06:16;99033.22;;;14.11;62.37
57048;BME280;42934;54.294;18.598;2022-09-16T09:08:55;99032.91;;;14.26;62.24
57048;BME280;42934;54.294;18.598;2022-09-16T09:11:34;99033.56;;;14.30;60.95
57048;BME280;42934;54.294;18.598;2022-09-16T09:14:20;99035.38;;;14.41;61.50
57048;BME280;42934;54.294;18.598;2022-09-16T09:17:04;99036.72;;;14.46;61.46
57048;BME280;42934;54.294;18.598;2022-09-16T09:19:46;99036.88;;;14.45;61.19
57048;BME280;42934;54.294;18.598;2022-09-16T09:22:25;99035.47;;;14.52;61.70
57048;BME280;42934;54.294;18.598;2022-09-16T09:25:07;99035.28;;;14.42;60.69
57048;BME280;42934;54.294;18.598;2022-09-16T09:27:58;99049.56;;;14.40;61.05
57048;BME280;42934;54.294;18.598;2022-09-16T09:30:32;99054.78;;;14.28;60.81
57048;BME280;42934;54.294;18.598;2022-09-16T09:33:18;99045.56;;;14.34;61.20
57048;BME280;42934;54.294;18.598;2022-09-16T09:36:30;99049.03;;;14.35;60.68
57048;BME280;42934;54.294;18.598;2022-09-16T09:39:24;99049.22;;;14.44;61.21
57048;BME280;42934;54.294;18.598;2022-09-16T09:42:03;99041.41;;;14.43;60.11
57048;BME280;42934;54.294;18.598;2022-09-16T09:44:43;99038.44;;;14.47;60.16
57048;BME280;42934;54.294;18.598;2022-09-16T09:47:19;99042.25;;;14.43;59.74
57048;BME280;42934;54.294;18.598;2022-09-16T09:49:51;99045.00;;;14.42;60.11
57048;BME280;42934;54.294;18.598;2022-09-16T09:52:27;99060.72;;;14.56;60.38
57048;BME280;42934;54.294;18.598;2022-09-16T09:55:14;99041.28;;;14.68;58.69
57048;BME280;42934;54.294;18.598;2022-09-16T09:57:58;99057.84;;;14.59;58.05
57048;BME280;42934;54.294;18.598;2022-09-16T10:00:31;99054.97;;;14.73;58.18
57048;BME280;42934;54.294;18.598;2022-09-16T10:03:10;99063.19;;;14.82;58.12
57048;BME280;42934;54.294;18.598;2022-09-16T10:05:40;99048.38;;;14.79;58.10
57048;BME280;42934;54.294;18.598;2022-09-16T10:08:21;99062.81;;;14.75;57.07
57048;BME280;42934;54.294;18.598;2022-09-16T10:10:53;99048.16;;;14.71;57.41
57048;BME280;42934;54.294;18.598;2022-09-16T10:13:25;99053.06;;;14.75;58.07
57048;BME280;42934;54.294;18.598;2022-09-16T10:16:06;99053.22;;;14.85;58.02
57048;BME280;42934;54.294;18.598;2022-09-16T10:18:37;99061.38;;;14.82;57.89
57048;BME280;42934;54.294;18.598;2022-09-16T10:21:09;99054.41;;;14.81;58.01
57048;BME280;42934;54.294;18.598;2022-09-16T10:23:39;99055.78;;;14.98;58.17
57048;BME280;42934;54.294;18.598;2022-09-16T10:26:20;99044.03;;;15.13;58.20
57048;BME280;42934;54.294;18.598;2022-09-16T10:28:56;99056.03;;;15.29;57.67
57048;BME280;42934;54.294;18.598;2022-09-16T10:31:28;99049.94;;;15.39;56.94
57048;BME280;42934;54.294;18.598;2022-09-16T10:34:02;99054.97;;;15.42;56.80
57048;BME280;42934;54.294;18.598;2022-09-16T10:36:34;99046.91;;;15.55;57.00
57048;BME280;42934;54.294;18.598;2022-09-16T10:39:03;99057.03;;;15.73;56.90
57048;BME280;42934;54.294;18.598;2022-09-16T10:41:39;99073.41;;;15.78;56.15
57048;BME280;42934;54.294;18.598;2022-09-16T10:44:16;99056.44;;;15.80;56.41
57048;BME280;42934;54.294;18.598;2022-09-16T10:46:52;99061.25;;;15.86;55.48
57048;BME280;42934;54.294;18.598;2022-09-16T10:53:52;99075.72;;;16.15;54.62
57048;BME280;42934;54.294;18.598;2022-09-16T10:57:26;99064.91;;;16.50;55.00
57048;BME280;42934;54.294;18.598;2022-09-16T11:00:13;99083.41;;;16.61;53.32
57048;BME280;42934;54.294;18.598;2022-09-16T11:06:23;99087.44;;;16.12;54.10
57048;BME280;42934;54.294;18.598;2022-09-16T11:09:08;99092.75;;;16.01;54.96
57048;BME280;42934;54.294;18.598;2022-09-16T11:14:59;99083.03;;;16.33;54.46
57048;BME280;42934;54.294;18.598;2022-09-16T11:17:56;99078.13;;;16.61;54.03
57048;BME280;42934;54.294;18.598;2022-09-16T11:20:43;99077.28;;;16.93;52.88
57048;BME280;42934;54.294;18.598;2022-09-16T11:23:24;99085.03;;;16.73;52.68
57048;BME280;42934;54.294;18.598;2022-09-16T11:25:59;99080.53;;;16.53;53.77
57048;BME280;42934;54.294;18.598;2022-09-16T11:28:47;99072.06;;;16.38;54.03
57048;BME280;42934;54.294;18.598;2022-09-16T11:31:29;99087.44;;;16.12;54.58
57048;BME280;42934;54.294;18.598;2022-09-16T11:34:09;99091.34;;;15.85;55.50
57048;BME280;42934;54.294;18.598;2022-09-16T11:36:52;99085.91;;;15.76;56.27
57048;BME280;42934;54.294;18.598;2022-09-16T11:42:29;99090.34;;;15.41;58.12
57048;BME280;42934;54.294;18.598;2022-09-16T11:45:14;99087.41;;;15.22;58.87
57048;BME280;42934;54.294;18.598;2022-09-16T11:47:58;99088.72;;;15.16;58.72
57048;BME280;42934;54.294;18.598;2022-09-16T11:50:40;99083.19;;;15.19;58.97
57048;BME280;42934;54.294;18.598;2022-09-16T11:56:14;99079.16;;;15.49;58.94
57048;BME280;42934;54.294;18.598;2022-09-16T11:59:04;99095.16;;;15.59;58.76
57048;BME280;42934;54.294;18.598;2022-09-16T12:02:00;99088.41;;;15.66;58.48
57048;BME280;42934;54.294;18.598;2022-09-16T12:04:41;99085.03;;;15.64;57.08
57048;BME280;42934;54.294;18.598;2022-09-16T12:07:18;99090.94;;;15.56;57.29
57048;BME280;42934;54.294;18.598;2022-09-16T12:10:13;99099.38;;;15.50;57.20
57048;BME280;42934;54.294;18.598;2022-09-16T12:12:49;99098.03;;;15.44;57.09
57048;BME280;42934;54.294;18.598;2022-09-16T12:15:23;99096.56;;;15.40;56.76
57048;BME280;42934;54.294;18.598;2022-09-16T12:18:14;99105.22;;;15.31;57.02
57048;BME280;42934;54.294;18.598;2022-09-16T12:20:52;99108.94;;;15.29;57.61
57048;BME280;42934;54.294;18.598;2022-09-16T12:23:27;99101.47;;;15.22;58.27
57048;BME280;42934;54.294;18.598;2022-09-16T12:26:26;99107.75;;;15.21;58.87
57048;BME280;42934;54.294;18.598;2022-09-16T12:29:05;99106.25;;;15.17;59.66
57048;BME280;42934;54.294;18.598;2022-09-16T12:31:45;99101.63;;;15.21;60.35
57048;BME280;42934;54.294;18.598;2022-09-16T12:34:22;99095.59;;;15.19;60.88
57048;BME280;42934;54.294;18.598;2022-09-16T12:36:57;99095.84;;;15.27;60.47
57048;BME280;42934;54.294;18.598;2022-09-16T12:39:29;99093.09;;;15.40;60.52
57048;BME280;42934;54.294;18.598;2022-09-16T12:46:13;99090.22;;;15.65;60.22
57048;BME280;42934;54.294;18.598;2022-09-16T12:49:20;99076.03;;;15.89;58.92
57048;BME280;42934;54.294;18.598;2022-09-16T12:52:26;99096.72;;;16.06;57.43
57048;BME280;42934;54.294;18.598;2022-09-16T12:59:41;99096.63;;;16.40;56.38
57048;BME280;42934;54.294;18.598;2022-09-16T13:02:36;99097.16;;;16.55;56.40
57048;BME280;42934;54.294;18.598;2022-09-16T13:05:17;99091.31;;;16.72;55.54
57048;BME280;42934;54.294;18.598;2022-09-16T13:08:04;99091.69;;;16.79;55.47
57048;BME280;42934;54.294;18.598;2022-09-16T13:10:41;99079.88;;;16.72;55.26
57048;BME280;42934;54.294;18.598;2022-09-16T13:13:31;99080.44;;;16.87;55.01
57048;BME280;42934;54.294;18.598;2022-09-16T13:16:35;99078.94;;;16.94;55.35
57048;BME280;42934;54.294;18.598;2022-09-16T13:19:40;99096.28;;;16.98;55.13
57048;BME280;42934;54.294;18.598;2022-09-16T13:22:25;99084.91;;;17.07;54.29
57048;BME280;42934;54.294;18.598;2022-09-16T13:25:06;99084.38;;;17.13;54.26
57048;BME280;42934;54.294;18.598;2022-09-16T13:27:56;99073.97;;;17.21;53.78
57048;BME280;42934;54.294;18.598;2022-09-16T13:30:44;99086.97;;;17.24;54.01
57048;BME280;42934;54.294;18.598;2022-09-16T13:33:33;99069.25;;;17.25;53.46
57048;BME280;42934;54.294;18.598;2022-09-16T13:36:30;99079.19;;;17.12;52.91
57048;BME280;42934;54.294;18.598;2022-09-16T13:39:11;99071.44;;;16.99;53.70
57048;BME280;42934;54.294;18.598;2022-09-16T13:41:42;99067.66;;;16.92;54.35
57048;BME280;42934;54.294;18.598;2022-09-16T13:44:38;99071.06;;;16.83;54.04
57048;BME280;42934;54.294;18.598;2022-09-16T13:47:16;99078.31;;;16.69;54.54
57048;BME280;42934;54.294;18.598;2022-09-16T13:49:49;99077.81;;;16.75;54.70
57048;BME280;42934;54.294;18.598;2022-09-16T13:52:23;99082.94;;;16.88;54.85
57048;BME280;42934;54.294;18.598;2022-09-16T13:54:56;99076.91;;;16.97;54.85
57048;BME280;42934;54.294;18.598;2022-09-16T13:57:59;99069.13;;;17.06;54.57
57048;BME280;42934;54.294;18.598;2022-09-16T14:01:00;99068.34;;;17.15;54.33
57048;BME280;42934;54.294;18.598;2022-09-16T14:03:47;99059.63;;;17.24;54.60
57048;BME280;42934;54.294;18.598;2022-09-16T14:06:55;99070.00;;;17.37;54.26
57048;BME280;42934;54.294;18.598;2022-09-16T14:09:41;99075.56;;;17.34;54.27
57048;BME280;42934;54.294;18.598;2022-09-16T14:12:26;99070.97;;;17.36;54.29
57048;BME280;42934;54.294;18.598;2022-09-16T14:15:01;99066.34;;;17.38;54.00
57048;BME280;42934;54.294;18.598;2022-09-16T14:17:45;99076.84;;;17.39;53.84